Wake Island Airfield Wake Island UM
ICAO: PWAK
IATA:
Category: Medium
Scheduled Services:

Elevation: 14 ft
TransAlt. 18000 ft.

Airport Communications:
OPS AAS:128
OAKLAND OCEANIC:884.3

PWAK Zoom In..

If you have problems with the map follow the link
https://www.worldairports.se/pages/airport.php?
ICAO=PWAK

Runways:

(A) RW 10 length 9844 ft width 150 ft
---- / hdg 95

(B) RW 28 length 9844 ft width 150 ft
---- / hdg 275

Location; PWAK
Day. 21 / Time. 11.58 Zulu
* Altimeter: 30.01
* Temperature: 25° c. 77°f.
* Wind from: 080° Speed 09 kn.
Dewpoint: 22° c.
Visibility: 9000 m.
Clouds: Clear (automated report).
Conditions: Haze.

PWAK 211158Z AUTO 08009KT 9000 HZ CLR 25/22 A3001 RMK AO2 SLP169 T02490222 10263 20248 50003 $


Wind From 080°
Speed 09 kn.

 
 
jpsmedia worldairports.se 2020   terms of use